Tiempo atmosférico en la estación meteorológica de Cervantes, Lugo (1020 m.)



Fecha
DESCASC
Temp. máxima en grados centígrados (hora)
DESCASC
Temp. mínima en grados centígrados (hora)
DESCASC
Temp. media en grados centígrados
DESCASC
Racha de viento máxima en m/sg (hora)
DESCASC
Velocidad máxima media en intervalos de 10 minutos(hora)
DESCASC
Precipitaciones diarias en mm
DESCASC
Precipitaciones de 00:00 a 06:00 en mm
DESCASC
Precipitaciones de 06:00 a 12:00 en mm
DESCASC
Precipitaciones de 12:00 a 18:00 en mm
DESCASC
Precipitaciones de 18:00 a 24:00 en mm
DESCASC
23-06-2019 18.7 (17:40) 9.8 (04:10) 14.3 10.56 (06:50) 4.72 (06:10) 15.6 8.6 7 0 0
22-06-2019 24.2 (15:10) 11.4 (00:00) 17.8 13.61 (10:10) 6.39 (10:00) 0 0 0 0 0
21-06-2019 20.1 (19:10) 8.9 (05:00) 14.5 5.28 (19:10) 2.5 (17:10) 0.2 0 0.2 0 0
20-06-2019 16 (14:40) 9.4 (00:00) 12.7 5.56 (16:20) 2.5 (16:20) 0.8 0 0 0 0.8
19-06-2019 16.6 (16:10) 11.1 (00:00) 13.9 7.78 (04:10) 2.78 (01:40) 1.4 0 0.2 0 1.2
18-06-2019 17.9 (15:00) 12.3 (00:00) 15.1 13.06 (14:30) 6.39 (16:00) 5.2 0 0.2 1.2 3.8
17-06-2019 23 (14:00) 11 (00:00) 17 9.17 (13:10) 4.72 (12:50) 0 0 0 0 0
16-06-2019 22.4 (14:20) 6.4 (00:00) 14.4 6.39 (11:20) 3.06 (11:20) 0 0 0 0 0
15-06-2019 16.5 (17:40) 5.8 (00:00) 11.2 6.11 (16:10) 2.5 (16:50) 0.2 0 0.2 0 0
14-06-2019 16 (17:10) 3.3 (00:00) 9.6 7.78 (18:30) 3.61 (17:30) 3.8 0 0 0 3.8
13-06-2019 14.5 (16:10) 4.5 (00:00) 9.5 7.22 (16:30) 3.33 (17:00) 0 0 0 0 0
12-06-2019 13.9 (19:30) 3.4 (00:00) 8.6 6.67 (14:00) 2.78 (16:40) 0.4 0 0.4 0 0
11-06-2019 11.9 (16:00) 4.3 (00:00) 8.1 6.94 (17:00) 2.5 (06:50) 1.4 0.6 0.6 0.2 0
10-06-2019 14.9 (17:40) 5.1 (00:00) 10 6.11 (16:50) 2.78 (01:10) 0 0 0 0 0
09-06-2019 14.3 (14:30) 5.5 (00:00) 9.9 6.94 (14:40) 2.78 (14:40) 0 0 0 0 0
08-06-2019 15.3 (14:40) 3 (00:00) 9.2 6.39 (12:10) 3.06 (12:10) 0 0 0 0 0
07-06-2019 10.7 (16:10) 3.1 (00:00) 6.9 12.78 (02:40) 4.44 (02:40) 13.4 6 5.8 1.4 0.2
06-06-2019 10.9 (12:20) 3.1 (00:00) 7 17.78 (17:50) 8.89 (17:20) 18 0 0 9.2 8.8
05-06-2019 9.9 (16:30) 3.8 (00:00) 6.8 8.89 (13:40) 4.17 (13:40) 10 3.4 2.2 3.4 1
04-06-2019 13.8 (17:50) 6.1 (00:00) 10 11.67 (05:20) 5.56 (06:20) 8.2 0 1.2 2.4 4.6
03-06-2019 20.5 (14:20) 11.8 (00:00) 16.2 6.39 (15:50) 3.06 (15:50) 0 0 0 0 0
02-06-2019 24.3 (16:20) 13.9 (00:00) 19.1 6.94 (12:20) 3.06 (08:00) 0 0 0 0 0
01-06-2019 28.1 (16:40) 16.9 (00:00) 22.5 9.17 (14:50) 4.17 (14:50) 0 0 0 0 0
31-05-2019 29.9 (17:50) 16.8 (00:00) 23.3 9.72 (04:20) 3.89 (04:20) 0 0 0 0 0
30-05-2019 27.7 (17:50) 13.2 (00:00) 20.5 6.11 (01:20) 2.78 (20:30) 0 0 0 0 0
29-05-2019 23 (17:30) 4.4 (00:00) 13.7 6.11 (16:20) 3.06 (16:20) 0 0 0 0 0
28-05-2019 16.9 (17:30) 4 (00:00) 10.4 8.06 (11:00) 3.33 (20:00) 0 0 0 0 0
27-05-2019 17.9 (15:40) 6.5 (00:00) 12.2 6.67 (23:30) 3.61 (22:20) 0 0 0 0 0

Gráficas

Temp. máximas Temp. mínimas Temp. medias Precipitaciones Rachas de viento máximas Velocidades máximas media en intervalos de 10 minutos

Datos horarios

Fecha y hora oficial Temperatura (ºC) Velocidad del viento (km/h) Dirección del viento Racha (km/h) Dirección de racha Precipitación (mm) Presión (hPa) Tendencia (hPa) Humedad (%)
2019-06-25 23:00:00 14.7 0 Calma 9 Norte 0.2 -- -- 88
2019-06-25 22:00:00 15.7 4 Norte 10 Nordeste 0 -- -- 82
2019-06-25 21:00:00 17.1 2 Nordeste 6 Sudeste 0 -- -- 79
2019-06-25 20:00:00 17.5 0 Calma 9 Sur 0 -- -- 76
2019-06-25 19:00:00 17.5 5 Sur 16 Sudoeste 0 -- -- 75
2019-06-25 18:00:00 18.9 5 Sudeste 12 Sur 0 -- -- 69
2019-06-25 17:00:00 17.8 2 Sur 8 Sudeste 0 -- -- 71
2019-06-25 16:00:00 17.3 4 Nordeste 8 Norte 0 -- -- 72
2019-06-25 15:00:00 15.8 5 Norte 11 Noroeste 0 -- -- 76
2019-06-25 14:00:00 15.9 3 Noroeste 17 Sur 0 -- -- 73
2019-06-25 13:00:00 17 6 Sur 13 Sudoeste 0 -- -- 71
2019-06-25 12:00:00 16.7 6 Sur 15 Sur 0 -- -- 73
2019-06-25 11:00:00 15.5 4 Sur 9 Sur 0 -- -- 74
2019-06-25 10:00:00 14.4 2 Sur 7 Sudeste 0 -- -- 77
2019-06-25 09:00:00 13.7 3 Sur 8 Nordeste 0 -- -- 84
2019-06-25 08:00:00 12.2 0 Calma 12 Sur 0 -- -- 85
2019-06-25 07:00:00 11.7 6 Sur 22 Sur 0 -- -- 86
2019-06-25 06:00:00 11.5 3 Sur 16 Sudeste 0 -- -- 88
2019-06-25 05:00:00 11.9 2 Este 17 Sudoeste 0 -- -- 88
2019-06-25 04:00:00 12.4 4 Oeste 11 Sudoeste 0 -- -- 88
2019-06-25 03:00:00 12.5 5 Sudoeste 16 Oeste 0 -- -- 88
2019-06-25 02:00:00 12.3 3 Noroeste 7 Oeste 0 -- -- 87
2019-06-25 01:00:00 12.3 3 Oeste 8 Oeste 0 -- -- 85
2019-06-25 00:00:00 12.5 5 Sudoeste 13 Sudoeste 0 -- -- 85
2019-06-24 23:00:00 12.8 5 Sudoeste 10 Oeste 0 -- -- 84
2019-06-24 22:00:00 14 5 Sudoeste 12 Sur 0 -- -- 77
2019-06-24 21:00:00 14.6 3 Sur 17 Sudeste 0 -- -- 79
2019-06-24 20:00:00 14.7 5 Sudoeste 17 Sudeste 0 -- -- 79
2019-06-24 19:00:00 15.1 6 Sur 15 Sur 0 -- -- 79
2019-06-24 18:00:00 15.8 6 Sur 23 Sudeste 0 -- -- 77
2019-06-24 17:00:00 16.4 9 Sur 26 Sur 0 -- -- 72
2019-06-24 16:00:00 16 10 Sur 22 Sur 0 -- -- 72
2019-06-24 15:00:00 16.3 5 Sur 15 Sur 0 -- -- 68
2019-06-24 14:00:00 14.3 8 Sudoeste 27 Sur 0.2 -- -- 70
2019-06-24 13:00:00 14.3 13 Sur 27 Este 0.2 -- -- 75
2019-06-24 12:00:00 13.7 4 Noroeste 10 Noroeste 0.2 -- -- 87
2019-06-24 11:00:00 13.5 0 Calma 9 Sur 0 -- -- 90
2019-06-24 10:00:00 13.3 5 Sur 8 Sur 0 -- -- 91
2019-06-24 09:00:00 12.3 2 Sur 8 Norte 0 -- -- 92
2019-06-24 08:00:00 12.2 5 Oeste 13 Noroeste 0 -- -- 93
2019-06-24 07:00:00 12.7 2 Noroeste 16 Norte 0 -- -- 87
2019-06-24 06:00:00 12.2 3 Norte 10 Oeste 0 -- -- 92
2019-06-24 05:00:00 12.5 4 Norte 9 Norte 0 -- -- 93
2019-06-24 04:00:00 12.6 2 Norte 4 Norte 0 -- -- 92
2019-06-24 03:00:00 13 0 Calma 5 Noroeste 0 -- -- 91
2019-06-24 02:00:00 13.4 0 Calma 4 Norte 0 -- -- 91
2019-06-24 01:00:00 13.7 0 Calma 6 Noroeste 0 -- -- 89
2019-06-24 00:00:00 14.4 0 Calma 9 Sudoeste 0 -- -- 87
2019-06-23 23:00:00 14.6 4 Oeste 11 Sudoeste 0 -- -- 88
2019-06-23 22:00:00 15.3 0 Calma 13 Sur 0 -- -- 87
2019-06-23 21:00:00 15.8 6 Sur 19 Sur 0 -- -- 86
2019-06-23 20:00:00 16.5 8 Sur 22 Sur 0 -- -- 83
2019-06-23 19:00:00 18.2 9 Sur 23 Sur 0 -- -- 76
2019-06-23 18:00:00 18.4 10 Sur 26 Sur 0 -- -- 75
2019-06-23 17:00:00 16.7 11 Sur 24 Sur 0 -- -- 81
2019-06-23 16:00:00 15.3 10 Sur 24 Sur 0 -- -- 84
2019-06-23 15:00:00 14.9 12 Sur 27 Sur 0 -- -- 84
2019-06-23 14:00:00 15.2 15 Sur 30 Sudeste 0 -- -- 84
2019-06-23 13:00:00 14.9 13 Sur 32 Sur 0 -- -- 83
2019-06-23 12:00:00 14.5 10 Sur 24 Oeste 0.8 -- -- 90
2019-06-23 11:00:00 13.1 13 Oeste 26 Sudoeste 1.8 -- -- 88
2019-06-23 10:00:00 12.2 14 Sudoeste 33 Sudoeste 4 -- -- 87
2019-06-23 09:00:00 12.4 11 Sur 36 Sur 0.4 -- -- 86
2019-06-23 08:00:00 12 14 Sudoeste 28 Sudoeste 0 -- -- 86
2019-06-23 07:00:00 11.1 11 Sur 38 Sur 0 -- -- 89
2019-06-23 06:00:00 11.1 9 Sudoeste 28 Sur 1.4 -- -- 88
2019-06-23 05:00:00 10.6 4 Sur 17 Sudoeste 2.2 -- -- 88
2019-06-23 04:00:00 10 6 Oeste 30 Noroeste 4.6 -- -- 85
2019-06-23 03:00:00 14.7 9 Oeste 19 Noroeste 0.4 -- -- 47
2019-06-23 02:00:00 16.2 3 Noroeste 18 Sudoeste 0 -- -- 36
2019-06-23 01:00:00 17.3 9 Sudoeste 19 Sur 0 -- -- 35
2019-06-23 00:00:00 17.3 9 Sur 20 Sudoeste 0 -- -- 46
2019-06-22 23:00:00 16.5 3 Noroeste 9 Sur 0 -- -- 58
2019-06-22 22:00:00 17 4 Noroeste 11 Oeste 0 -- -- 59
2019-06-22 21:00:00 18 0 Calma 5 Norte 0 -- -- 62
2019-06-22 20:00:00 18.8 4 Nordeste 22 Noroeste 0 -- -- 58
2019-06-22 19:00:00 19.4 12 Noroeste 22 Norte 0 -- -- 58
2019-06-22 18:00:00 22.3 8 Sudoeste 27 Sudoeste 0 -- -- 37
2019-06-22 17:00:00 23.7 9 Oeste 38 Sur 0 -- -- 33
2019-06-22 16:00:00 23.7 14 Sudoeste 34 Sur 0 -- -- 34
2019-06-22 15:00:00 23.9 11 Sur 31 Sudoeste 0 -- -- 43
2019-06-22 14:00:00 20.2 12 Sur 37 Sur 0 -- -- 51
2019-06-22 13:00:00 19.5 18 Sur 44 Sur 0 -- -- 50
2019-06-22 12:00:00 20.2 17 Sur 37 Sur 0 -- -- 48
2019-06-22 11:00:00 16.5 19 Sur 49 Sur 0 -- -- 57
2019-06-22 10:00:00 15.3 23 Sur 43 Sur 0 -- -- 60
2019-06-22 09:00:00 15.1 18 Sur 45 Sur 0 -- -- 59
2019-06-22 08:00:00 13.4 19 Sur 39 Sur 0 -- -- 66
2019-06-22 07:00:00 12.9 18 Sur 36 Sur 0 -- -- 70
2019-06-22 06:00:00 12.5 15 Sudoeste 37 Sur 0 -- -- 73
2019-06-22 05:00:00 12.6 16 Sur 32 Sur 0 -- -- 73
2019-06-22 04:00:00 12.8 12 Sur 33 Sur 0 -- -- 73
2019-06-22 03:00:00 13.2 10 Sur 25 Sur 0 -- -- 74
2019-06-22 02:00:00 12.1 3 Sudoeste 9 Sudoeste 0 -- -- 81
2019-06-22 01:00:00 11.8 0 Calma 5 Norte 0 -- -- 85
2019-06-22 00:00:00 11.4 2 Norte 5 Noroeste 0 -- -- 90
2019-06-21 23:00:00 12.1 0 Calma 10 Norte 0 -- -- 87
2019-06-21 22:00:00 13.1 5 Norte 10 Norte 0 -- -- 82
2019-06-21 21:00:00 14.2 0 Calma 15 Norte 0 -- -- 79
2019-06-21 20:00:00 15.9 7 Norte 19 Noroeste 0 -- -- 73
2019-06-21 19:00:00 19.9 5 Norte 14 Nordeste 0 -- -- 52
2019-06-21 18:00:00 18.9 5 Nordeste 17 Sur 0 -- -- 59
2019-06-21 17:00:00 19.4 7 Norte 17 Norte 0 -- -- 59
2019-06-21 16:00:00 18.7 4 Noroeste 15 Norte 0 -- -- 57
2019-06-21 15:00:00 18.2 5 Este 12 Noroeste 0 -- -- 58
2019-06-21 14:00:00 18.3 5 Oeste 15 Oeste 0 -- -- 58
2019-06-21 13:00:00 15.1 6 Sudeste 12 Nordeste 0 -- -- 70
2019-06-21 12:00:00 17.2 6 Sur 14 Sur 0 -- -- 69
2019-06-21 11:00:00 14.8 3 Este 9 Este 0 -- -- 75
2019-06-21 10:00:00 11.4 3 Sudeste 7 Sudeste 0 -- -- 94
2019-06-21 09:00:00 9.4 2 Sudeste 5 Este 0 -- -- 95
2019-06-21 08:00:00 9 0 Calma 4 Norte 0.2 -- -- 95
2019-06-21 07:00:00 9 0 Calma 3 Sur 0 -- -- 96
2019-06-21 06:00:00 9 0 Calma 4 Oeste 0 -- -- 95
2019-06-21 05:00:00 8.9 0 Calma 4 Oeste 0 -- -- 95
2019-06-21 04:00:00 9.2 2 Nordeste 6 Nordeste 0 -- -- 95
2019-06-21 03:00:00 9.3 0 Calma 4 Noroeste 0 -- -- 95
2019-06-21 02:00:00 9.5 0 Calma 4 Sur 0 -- -- 95
2019-06-21 01:00:00 9.4 0 Calma 9 Norte 0 -- -- 95
2019-06-21 00:00:00 9.4 6 Norte 12 Noroeste 0 -- -- 95
2019-06-20 23:00:00 9.7 4 Norte 15 Norte 0 -- -- 94
2019-06-20 22:00:00 10.1 7 Norte 20 Norte 0 -- -- 94
2019-06-20 21:00:00 11 3 Noroeste 10 Norte 0.8 -- -- 93
2019-06-20 20:00:00 11.5 4 Norte 12 Nordeste 0 -- -- 90
2019-06-20 19:00:00 11.7 7 Norte 17 Norte 0 -- -- 89
2019-06-20 18:00:00 12.5 7 Norte 17 Este 0 -- -- 85
2019-06-20 17:00:00 13.5 6 Norte 20 Norte 0 -- -- 83
2019-06-20 16:00:00 15.1 9 Norte 19 Nordeste 0 -- -- 77
2019-06-20 15:00:00 15.6 7 Nordeste 19 Nordeste 0 -- -- 74
2019-06-20 14:00:00 15.7 4 Este 12 Norte 0 -- -- 75
2019-06-20 13:00:00 15.4 4 Sudeste 14 Este 0 -- -- 75
2019-06-20 12:00:00 13.6 5 Nordeste 13 Nordeste 0 -- -- 83
2019-06-20 11:00:00 12.6 3 Nordeste 8 Nordeste 0 -- -- 86
2019-06-20 10:00:00 11.7 2 Sudeste 6 Este 0 -- -- 87
2019-06-20 09:00:00 10.9 0 Calma 5 Nordeste 0 -- -- 94
2019-06-20 08:00:00 10.4 2 Este 6 Norte 0 -- -- 95
2019-06-20 07:00:00 10 3 Norte 6 Norte 0 -- -- 95
2019-06-20 06:00:00 10.3 2 Nordeste 5 Sudeste 0 -- -- 95
2019-06-20 05:00:00 10.3 3 Norte 12 Norte 0 -- -- 95
2019-06-20 04:00:00 10.5 2 Norte 6 Norte 0 -- -- 94
2019-06-20 03:00:00 10.3 0 Calma 3 Sudoeste 0 -- -- 94
2019-06-20 02:00:00 10.7 0 Calma 9 Norte 0 -- -- 94
2019-06-20 01:00:00 10.7 3 Nordeste 8 Norte 0 -- -- 93
2019-06-20 00:00:00 11.1 3 Norte 13 Noroeste 0.8 -- -- 92
2019-06-19 23:00:00 11.5 5 Norte 11 Norte 0.2 -- -- 91
2019-06-19 22:00:00 12 0 Calma 10 Norte 0 -- -- 89
2019-06-19 21:00:00 12.8 5 Norte 13 Este 0 -- -- 85
2019-06-19 20:00:00 13.5 5 Norte 16 Norte 0.2 -- -- 82
2019-06-19 19:00:00 14.4 4 Oeste 17 Norte 0 -- -- 73
2019-06-19 18:00:00 14.6 8 Norte 19 Norte 0 -- -- 74
2019-06-19 17:00:00 15.7 8 Norte 17 Norte 0 -- -- 68
2019-06-19 16:00:00 16 4 Este 15 Noroeste 0 -- -- 70
2019-06-19 15:00:00 15.3 7 Oeste 15 Sudoeste 0 -- -- 69
2019-06-19 14:00:00 14.6 6 Noroeste 22 Oeste 0 -- -- 70
2019-06-19 13:00:00 13.2 7 Sudoeste 18 Noroeste 0 -- -- 75
2019-06-19 12:00:00 14.1 6 Sur 13 Noroeste 0 -- -- 79
2019-06-19 11:00:00 12.4 3 Este 7 Norte 0.2 -- -- 90
2019-06-19 10:00:00 12.3 3 Sur 8 Sur 0 -- -- 89
2019-06-19 09:00:00 12.5 0 Calma 8 Noroeste 0 -- -- 85
2019-06-19 08:00:00 11.8 8 Sur 21 Sur 0 -- -- 83
2019-06-19 07:00:00 11.4 5 Sudoeste 17 Oeste 0 -- -- 87
2019-06-19 06:00:00 11.5 5 Sur 21 Sudoeste 0 -- -- 86
2019-06-19 05:00:00 11.8 9 Sudoeste 28 Oeste 0 -- -- 84
2019-06-19 04:00:00 12.1 8 Sur 25 Sur 0 -- -- 81
2019-06-19 03:00:00 12.2 7 Oeste 24 Sudoeste 0 -- -- 81
2019-06-19 02:00:00 12.2 7 Sur 25 Sur 0 -- -- 83
2019-06-19 01:00:00 12.4 8 Sudoeste 21 Sur 0 -- -- 82
2019-06-19 00:00:00 12.3 6 Sur 21 Noroeste 0 -- -- 87
2019-06-18 23:00:00 12.6 9 Noroeste 30 Sudoeste 0.2 -- -- 84
2019-06-18 22:00:00 12.7 14 Sudoeste 31 Sudoeste 1.6 -- -- 87
2019-06-18 21:00:00 13.1 3 Sudeste 17 Sudoeste 0.8 -- -- 88
2019-06-18 20:00:00 13.1 5 Sudoeste 19 Sur 0.8 -- -- 87
2019-06-18 19:00:00 13.4 9 Sur 29 Sur 0.4 -- -- 85
2019-06-18 18:00:00 14 11 Sur 28 Sur 0.8 -- -- 79
2019-06-18 17:00:00 14.6 13 Sudoeste 34 Sudeste 0.2 -- -- 70
2019-06-18 16:00:00 15.4 23 Sur 44 Sur 0 -- -- 62
2019-06-18 15:00:00 17.9 20 Sur 47 Sur 0 -- -- 56
2019-06-18 14:00:00 16.1 13 Sur 36 Sudeste 0 -- -- 64
2019-06-18 13:00:00 15.2 15 Sur 30 Sur 0.2 -- -- 73
2019-06-18 12:00:00 14.4 14 Sur 31 Sur 0 -- -- 70
2019-06-18 11:00:00 14 11 Sur 26 Sur 0.2 -- -- 68
2019-06-18 10:00:00 13.7 10 Sudoeste 33 Oeste 0 -- -- 57
2019-06-18 09:00:00 15.4 14 Sur 30 Sur 0 -- -- 39
2019-06-18 08:00:00 15.3 11 Sur 29 Sur 0 -- -- 43
2019-06-18 07:00:00 15.5 13 Sur 28 Sur 0 -- -- 41
2019-06-18 06:00:00 15.3 11 Sudoeste 27 Sudoeste 0 -- -- 41
2019-06-18 05:00:00 15.5 12 Sudoeste 23 Sudoeste 0 -- -- 40
2019-06-18 04:00:00 15.2 9 Sudoeste 18 Sudoeste 0 -- -- 41
2019-06-18 03:00:00 14.4 8 Sur 21 Sur 0 -- -- 44
2019-06-18 02:00:00 15.5 11 Sur 25 Sudoeste 0 -- -- 39
2019-06-18 01:00:00 16.3 13 Sur 32 Sur 0 -- -- 36
2019-06-18 00:00:00 15.7 10 Sur 21 Sudeste 0 -- -- 39
2019-06-17 23:00:00 16.1 15 Sudoeste 28 Sur 0 -- -- 34
2019-06-17 22:00:00 17 10 Sudoeste 23 Sur 0 -- -- 28
2019-06-17 21:00:00 17.9 5 Sudoeste 22 Sur 0 -- -- 31
2019-06-17 20:00:00 18.2 8 Sudoeste 17 Sur 0 -- -- 38
2019-06-17 19:00:00 19.3 3 Sur 15 Sudoeste 0 -- -- 43
2019-06-17 18:00:00 19.8 0 Calma 15 Sudoeste 0 -- -- 37
2019-06-17 17:00:00 19.4 6 Oeste 19 Sudoeste 0 -- -- 38
2019-06-17 16:00:00 20.6 8 Sudoeste 28 Oeste 0 -- -- 23
2019-06-17 15:00:00 20.7 13 Sudoeste 27 Sur 0 -- -- 19
2019-06-17 14:00:00 23 7 Sur 33 Sur 0 -- -- 35
2019-06-17 13:00:00 22.3 15 Sur 31 Sur 0 -- -- 35
2019-06-17 12:00:00 21.4 13 Sur 29 Sur 0 -- -- 39
2019-06-17 11:00:00 20.4 12 Sur 28 Sur 0 -- -- 48
2019-06-17 10:00:00 18.8 9 Sur 22 Sur 0 -- -- 57
2019-06-17 09:00:00 14.4 5 Sur 16 Sudoeste 0 -- -- 71
2019-06-17 08:00:00 13.2 5 Sudoeste 15 Sur 0 -- -- 73
2019-06-17 07:00:00 11.9 4 Sudoeste 9 Sur 0 -- -- 82
2019-06-17 06:00:00 11.6 3 Sudeste 8 Sudeste 0 -- -- 83
2019-06-17 05:00:00 11.7 0 Calma 6 Norte 0 -- -- 85
2019-06-17 04:00:00 12.1 0 Calma 6 Noroeste 0 -- -- 88
2019-06-17 03:00:00 11.1 0 Calma 4 Noroeste 0 -- -- 93
2019-06-17 02:00:00 11.3 0 Calma 4 Sudeste 0 -- -- 92
2019-06-17 01:00:00 11.5 0 Calma 4 Noroeste 0 -- -- 92
2019-06-17 00:00:00 11.9 0 Calma 9 Noroeste 0 -- -- 89
2019-06-16 23:00:00 12.9 7 Norte 14 Norte 0 -- -- 85
2019-06-16 22:00:00 14.4 7 Norte 16 Norte 0 -- -- 79
2019-06-16 21:00:00 16.5 7 Norte 16 Norte 0 -- -- 68
2019-06-16 20:00:00 20.2 4 Nordeste 14 Este 0 -- -- 47
2019-06-16 19:00:00 21.6 5 Norte 18 Nordeste 0 -- -- 45
2019-06-16 18:00:00 20.6 8 Norte 21 Norte 0 -- -- 48
2019-06-16 17:00:00 20.3 10 Norte 20 Noroeste 0 -- -- 47
2019-06-16 16:00:00 21.1 6 Norte 15 Nordeste 0 -- -- 48
2019-06-16 15:00:00 19 6 Norte 17 Este 0 -- -- 51
2019-06-16 14:00:00 21.4 7 Sur 22 Sur 0 -- -- 39
2019-06-16 13:00:00 20.7 9 Sur 21 Sur 0 -- -- 42
2019-06-16 12:00:00 18.9 10 Sur 23 Sur 0 -- -- 50
2019-06-16 11:00:00 17.2 10 Sur 20 Sur 0 -- -- 56
2019-06-16 10:00:00 15.2 5 Sur 9 Sur 0 -- -- 65
2019-06-16 09:00:00 11.3 3 Sudeste 9 Este 0 -- -- 75
2019-06-16 08:00:00 9.6 4 Sudeste 13 Sur 0 -- -- 77
2019-06-16 07:00:00 6.4 0 Calma 6 Norte 0 -- -- 91
2019-06-16 06:00:00 6.7 0 Calma 5 Noroeste 0 -- -- 92
2019-06-16 05:00:00 6.7 0 Calma 3 Noroeste 0 -- -- 91
2019-06-16 04:00:00 6.7 2 Nordeste 4 Noroeste 0 -- -- 90
2019-06-16 03:00:00 7.1 0 Calma 5 Norte 0 -- -- 90
2019-06-16 02:00:00 7.4 2 Norte 11 Norte 0 -- -- 88
2019-06-16 01:00:00 7.8 8 Norte 10 Noroeste 0 -- -- 86
2019-06-16 00:00:00 8.1 6 Norte 10 Norte 0 -- -- 84
2019-06-15 23:00:00 8.6 6 Norte 15 Norte 0 -- -- 83
2019-06-15 22:00:00 9.6 6 Norte 12 Norte 0 -- -- 80
2019-06-15 21:00:00 11.4 6 Norte 15 Norte 0 -- -- 70
2019-06-15 20:00:00 14.3 9 Norte 15 Norte 0 -- -- 57
2019-06-15 19:00:00 15.6 5 Norte 17 Nordeste 0 -- -- 55
2019-06-15 18:00:00 15.7 5 Norte 18 Noroeste 0 -- -- 51
2019-06-15 17:00:00 15.6 8 Norte 22 Norte 0 -- -- 55
2019-06-15 16:00:00 15.4 4 Noroeste 18 Oeste 0 -- -- 55
2019-06-15 15:00:00 15 6 Sur 20 Norte 0 -- -- 51
2019-06-15 14:00:00 12.6 7 Oeste 19 Sudoeste 0 -- -- 59
2019-06-15 13:00:00 12.2 6 Oeste 14 Sudoeste 0 -- -- 59
2019-06-15 12:00:00 10.4 3 Sur 14 Sudoeste 0 -- -- 70
2019-06-15 11:00:00 10.8 6 Sur 15 Sudoeste 0 -- -- 69
2019-06-15 10:00:00 8.2 2 Este 10 Noroeste 0 -- -- 84
2019-06-15 09:00:00 6.9 6 Norte 19 Noroeste 0 -- -- 87
2019-06-15 08:00:00 7 3 Sur 8 Sudoeste 0.2 -- -- 90
2019-06-15 07:00:00 6.9 4 Oeste 11 Oeste 0 -- -- 89
2019-06-15 06:00:00 6.7 4 Oeste 12 Sudoeste 0 -- -- 89
2019-06-15 05:00:00 6.4 2 Norte 5 Norte 0 -- -- 92
2019-06-15 04:00:00 6.1 0 Calma 5 Norte 0 -- -- 92
2019-06-15 03:00:00 6.1 0 Calma 4 Norte 0 -- -- 92
2019-06-15 02:00:00 6.6 0 Calma 9 Norte 0 -- -- 90
2019-06-15 01:00:00 6.6 3 Este 12 Norte 0 -- -- 90
2019-06-15 00:00:00 7.5 3 Norte 12 Norte 0.2 -- -- 91
2019-06-14 23:00:00 7.7 3 Nordeste 15 Norte 2.4 -- -- 90
2019-06-14 22:00:00 8.3 5 Norte 17 Noroeste 1.2 -- -- 87
2019-06-14 21:00:00 10.3 4 Norte 21 Norte 0 -- -- 70
2019-06-14 20:00:00 11 6 Nordeste 23 Norte 0 -- -- 63
2019-06-14 19:00:00 11.7 9 Norte 28 Norte 0 -- -- 64
2019-06-14 18:00:00 12.1 11 Norte 24 Norte 0 -- -- 59
2019-06-14 17:00:00 14.9 10 Norte 24 Norte 0 -- -- 48
2019-06-14 16:00:00 15.3 8 Nordeste 23 Norte 0 -- -- 46
2019-06-14 15:00:00 13.2 10 Norte 21 Noroeste 0 -- -- 61
2019-06-14 14:00:00 14.2 6 Nordeste 17 Norte 0 -- -- 53
2019-06-14 13:00:00 13.6 5 Sudeste 15 Este 0 -- -- 54
2019-06-14 12:00:00 12 6 Nordeste 16 Nordeste 0 -- -- 62
2019-06-14 11:00:00 13.3 5 Este 14 Nordeste 0 -- -- 56
2019-06-14 10:00:00 12.1 4 Sur 8 Sur 0 -- -- 68
2019-06-14 09:00:00 7.9 3 Sur 4 Sur 0 -- -- 86
2019-06-14 08:00:00 5.2 0 Calma 3 Nordeste 0 -- -- 93
2019-06-14 07:00:00 4.4 0 Calma 4 Norte 0 -- -- 95
2019-06-14 06:00:00 3.3 0 Calma 4 Noroeste 0 -- -- 95
2019-06-14 05:00:00 4.3 3 Noroeste 5 Noroeste 0 -- -- 94
2019-06-14 04:00:00 4.6 0 Calma 6 Norte 0 -- -- 93
2019-06-14 03:00:00 5.5 0 Calma 5 Noroeste 0 -- -- 93
2019-06-14 02:00:00 5.8 0 Calma 8 Norte 0 -- -- 91
2019-06-14 01:00:00 6.4 0 Calma 9 Norte 0 -- -- 90
2019-06-14 00:00:00 7 7 Norte 13 Norte 0 -- -- 89
2019-06-13 23:00:00 7.9 6 Norte 15 Norte 0 -- -- 85
2019-06-13 22:00:00 8.7 6 Norte 14 Noroeste 0 -- -- 74
2019-06-13 21:00:00 9.6 5 Norte 18 Noroeste 0 -- -- 68
2019-06-13 20:00:00 12.6 8 Norte 19 Norte 0 -- -- 51
2019-06-13 19:00:00 13.3 9 Norte 21 Norte 0 -- -- 51
2019-06-13 18:00:00 12.2 8 Norte 22 Norte 0 -- -- 54
2019-06-13 17:00:00 13.6 12 Norte 26 Norte 0 -- -- 51
2019-06-13 16:00:00 13.7 7 Norte 21 Norte 0 -- -- 49
2019-06-13 15:00:00 12.3 8 Noroeste 24 Norte 0 -- -- 59
2019-06-13 14:00:00 12.1 9 Noroeste 18 Norte 0 -- -- 63
2019-06-13 13:00:00 10.8 5 Noroeste 18 Nordeste 0 -- -- 63
2019-06-13 12:00:00 10.5 8 Nordeste 18 Este 0 -- -- 72
2019-06-13 11:00:00 10.2 4 Sudeste 12 Sudeste 0 -- -- 72
2019-06-13 10:00:00 7 3 Sur 8 Sudeste 0 -- -- 85
2019-06-13 09:00:00 5.4 3 Sur 5 Este 0 -- -- 92
2019-06-13 08:00:00 5.1 2 Sur 5 Sur 0 -- -- 94
2019-06-13 07:00:00 4.9 0 Calma 5 Noroeste 0 -- -- 94
2019-06-13 06:00:00 5 0 Calma 7 Norte 0 -- -- 93
2019-06-13 05:00:00 5 3 Noroeste 7 Norte 0 -- -- 93
2019-06-13 04:00:00 4.8 0 Calma 5 Norte 0 -- -- 94
2019-06-13 03:00:00 5.5 0 Calma 4 Norte 0 -- -- 93
2019-06-13 02:00:00 4.5 0 Calma 12 Norte 0 -- -- 93
2019-06-13 01:00:00 5.3 6 Norte 10 Norte 0 -- -- 92
2019-06-13 00:00:00 5.8 5 Norte 14 Noroeste 0 -- -- 90
2019-06-12 23:00:00 6.5 6 Norte 10 Norte 0 -- -- 88
2019-06-12 22:00:00 7.6 5 Norte 14 Norte 0 -- -- 84
2019-06-12 21:00:00 8.6 6 Norte 17 Norte 0 -- -- 76
2019-06-12 20:00:00 11.8 9 Norte 17 Norte 0 -- -- 52
2019-06-12 19:00:00 13 6 Norte 17 Este 0 -- -- 46
2019-06-12 18:00:00 12.3 6 Nordeste 17 Este 0 -- -- 49
2019-06-12 17:00:00 12.1 6 Noroeste 20 Noroeste 0 -- -- 49
2019-06-12 16:00:00 11.2 5 Sur 23 Noroeste 0 -- -- 53
2019-06-12 15:00:00 11.1 7 Nordeste 22 Sudeste 0 -- -- 56
2019-06-12 14:00:00 10.7 9 Noroeste 24 Noroeste 0 -- -- 55
2019-06-12 13:00:00 10.1 7 Noroeste 19 Nordeste 0 -- -- 58
2019-06-12 12:00:00 10.2 6 Sudeste 14 Sudeste 0 -- -- 55
2019-06-12 11:00:00 8.8 5 Este 14 Sudeste 0 -- -- 67
2019-06-12 10:00:00 9.1 4 Este 14 Este 0 -- -- 69
2019-06-12 09:00:00 5.7 4 Nordeste 11 Nordeste 0 -- -- 86
2019-06-12 08:00:00 4.7 2 Norte 13 Noroeste 0.2 -- -- 90
2019-06-12 07:00:00 4.3 4 Noroeste 11 Noroeste 0.2 -- -- 90
2019-06-12 06:00:00 4.2 4 Norte 10 Norte 0 -- -- 89
2019-06-12 05:00:00 3.4 4 Norte 9 Norte 0 -- -- 91
2019-06-12 04:00:00 4.2 3 Norte 11 Norte 0 -- -- 88
2019-06-12 03:00:00 4.6 4 Norte 12 Norte 0 -- -- 89
2019-06-12 02:00:00 5 4 Norte 14 Norte 0 -- -- 88
2019-06-12 01:00:00 5.4 5 Norte 11 Norte 0 -- -- 86
2019-06-12 00:00:00 5.7 3 Norte 12 Norte 0 -- -- 86
2019-06-11 23:00:00 6.1 4 Norte 12 Norte 0 -- -- 84
2019-06-11 22:00:00 7.2 4 Este 18 Nordeste 0 -- -- 79
2019-06-11 21:00:00 7.7 6 Norte 14 Norte 0 -- -- 73
2019-06-11 20:00:00 9.1 5 Norte 18 Nordeste 0 -- -- 68
2019-06-11 19:00:00 10.5 5 Sudeste 21 Nordeste 0 -- -- 60
2019-06-11 18:00:00 9.8 8 Norte 22 Este 0 -- -- 66
2019-06-11 17:00:00 10.5 6 Este 25 Este 0 -- -- 59
2019-06-11 16:00:00 11.9 6 Este 22 Sudeste 0 -- -- 59
2019-06-11 15:00:00 10.1 7 Sudoeste 23 Nordeste 0.2 -- -- 68
2019-06-11 14:00:00 8.5 6 Nordeste 21 Noroeste 0 -- -- 74
2019-06-11 13:00:00 8.3 9 Norte 23 Norte 0 -- -- 82
2019-06-11 12:00:00 7.1 8 Norte 23 Nordeste 0 -- -- 79
2019-06-11 11:00:00 5.6 7 Norte 18 Norte 0.4 -- -- 88
2019-06-11 10:00:00 5 6 Norte 15 Nordeste 0 -- -- 88
2019-06-11 09:00:00 4.6 6 Norte 16 Nordeste 0 -- -- 91
2019-06-11 08:00:00 4.3 8 Norte 22 Norte 0 -- -- 94
2019-06-11 07:00:00 4.6 8 Norte 22 Nordeste 0.2 -- -- 94
2019-06-11 06:00:00 4.9 4 Norte 13 Noroeste 0.2 -- -- 92
2019-06-11 05:00:00 5 4 Norte 11 Norte 0.2 -- -- 91
2019-06-11 04:00:00 4.7 0 Calma 13 Nordeste 0.2 -- -- 91
2019-06-11 03:00:00 5 4 Norte 10 Norte 0 -- -- 87
2019-06-11 02:00:00 5.5 6 Norte 12 Norte 0 -- -- 87
2019-06-11 01:00:00 5.8 4 Norte 14 Norte 0 -- -- 90
2019-06-11 00:00:00 6.2 5 Norte 11 Norte 0 -- -- 89
2019-06-10 23:00:00 6.5 5 Norte 15 Nordeste 0 -- -- 89
2019-06-10 22:00:00 8.1 4 Norte 16 Nordeste 0 -- -- 86
2019-06-10 21:00:00 9.6 5 Norte 13 Noroeste 0 -- -- 75
2019-06-10 20:00:00 11.2 3 Noroeste 21 Norte 0 -- -- 60
2019-06-10 19:00:00 13.6 6 Norte 21 Nordeste 0 -- -- 51
2019-06-10 18:00:00 13.9 8 Norte 22 Norte 0 -- -- 49
2019-06-10 17:00:00 13.1 10 Noroeste 22 Norte 0 -- -- 51
2019-06-10 16:00:00 12.5 5 Este 16 Norte 0 -- -- 55
2019-06-10 15:00:00 12.3 5 Este 19 Nordeste 0 -- -- 56
2019-06-10 14:00:00 12.2 7 Nordeste 21 Sudeste 0 -- -- 55
2019-06-10 13:00:00 12 6 Sudoeste 18 Norte 0 -- -- 57
2019-06-10 12:00:00 12 5 Nordeste 17 Sudeste 0 -- -- 58
2019-06-10 11:00:00 10.7 8 Sudeste 18 Sudeste 0 -- -- 64
2019-06-10 10:00:00 9.2 2 Oeste 6 Norte 0 -- -- 74
2019-06-10 09:00:00 6.5 3 Sur 6 Sur 0 -- -- 92
2019-06-10 08:00:00 5.9 2 Sur 6 Noroeste 0 -- -- 93
2019-06-10 07:00:00 5.3 4 Norte 8 Norte 0 -- -- 92
2019-06-10 06:00:00 5.4 2 Norte 9 Norte 0 -- -- 93
2019-06-10 05:00:00 5.7 3 Norte 6 Norte 0 -- -- 93
2019-06-10 04:00:00 5.7 0 Calma 5 Noroeste 0 -- -- 94
2019-06-10 03:00:00 5.5 2 Noroeste 8 Norte 0 -- -- 94
2019-06-10 02:00:00 5.9 2 Noroeste 16 Noroeste 0 -- -- 92
2019-06-10 01:00:00 6.8 9 Noroeste 17 Noroeste 0 -- -- 93
2019-06-10 00:00:00 6.6 6 Norte 12 Noroeste 0 -- -- 92
2019-06-09 23:00:00 7.2 4 Norte 10 Norte 0 -- -- 89
2019-06-09 22:00:00 8.5 6 Norte 12 Norte 0 -- -- 87
2019-06-09 21:00:00 9.4 4 Nordeste 13 Nordeste 0 -- -- 82
2019-06-09 20:00:00 10.3 5 Norte 12 Noroeste 0 -- -- 78
2019-06-09 19:00:00 11.2 5 Nordeste 14 Norte 0 -- -- 73
2019-06-09 18:00:00 12.5 4 Oeste 24 Nordeste 0 -- -- 67
2019-06-09 17:00:00 12.7 8 Norte 21 Nordeste 0 -- -- 66
2019-06-09 16:00:00 13 7 Norte 22 Norte 0 -- -- 65
2019-06-09 15:00:00 13.3 6 Nordeste 25 Norte 0 -- -- 61
2019-06-09 14:00:00 13.6 6 Norte 17 Noroeste 0 -- -- 60
2019-06-09 13:00:00 12.8 8 Norte 21 Sur 0 -- -- 63
2019-06-09 12:00:00 12.5 7 Norte 17 Nordeste 0 -- -- 68
2019-06-09 11:00:00 10.7 4 Norte 10 Sudeste 0 -- -- 71
2019-06-09 10:00:00 7.5 0 Calma 5 Este 0 -- -- 89
2019-06-09 09:00:00 6.6 0 Calma 8 Oeste 0 -- -- 94
2019-06-09 08:00:00 6 3 Norte 9 Noroeste 0 -- -- 95
2019-06-09 07:00:00 5.7 0 Calma 5 Norte 0 -- -- 95
2019-06-09 06:00:00 5.7 3 Noroeste 7 Norte 0 -- -- 94
2019-06-09 05:00:00 5.7 3 Noroeste 9 Norte 0 -- -- 94
2019-06-09 04:00:00 6 5 Noroeste 8 Noroeste 0 -- -- 94
2019-06-09 03:00:00 6.5 0 Calma 6 Noroeste 0 -- -- 94
2019-06-09 02:00:00 7 0 Calma 4 Norte 0 -- -- 93
2019-06-09 01:00:00 7.1 2 Norte 5 Norte 0 -- -- 92
2019-06-09 00:00:00 7.5 2 Noroeste 5 Norte 0 -- -- 92
2019-06-08 23:00:00 7.2 4 Norte 10 Norte 0 -- -- 91
2019-06-08 22:00:00 8.3 4 Norte 14 Noroeste 0 -- -- 88
2019-06-08 21:00:00 9.3 5 Norte 14 Norte 0 -- -- 84
2019-06-08 20:00:00 9.6 5 Norte 18 Norte 0 -- -- 84
2019-06-08 19:00:00 10.6 5 Norte 14 Norte 0 -- -- 78
2019-06-08 18:00:00 11.9 5 Norte 17 Nordeste 0 -- -- 70
2019-06-08 17:00:00 13.3 6 Norte 16 Norte 0 -- -- 61
2019-06-08 16:00:00 13.2 7 Norte 17 Nordeste 0 -- -- 60
2019-06-08 15:00:00 13 8 Norte 16 Nordeste 0 -- -- 62
2019-06-08 14:00:00 14.6 6 Sur 18 Sur 0 -- -- 48
2019-06-08 13:00:00 14.1 9 Sur 23 Sudoeste 0 -- -- 52
2019-06-08 12:00:00 12.7 10 Sur 22 Sur 0 -- -- 61
2019-06-08 11:00:00 10.8 8 Sur 15 Sur 0 -- -- 71
2019-06-08 10:00:00 9.5 5 Sur 12 Sur 0 -- -- 75
2019-06-08 09:00:00 5.7 2 Sudeste 8 Sudeste 0 -- -- 90
2019-06-08 08:00:00 4.2 0 Calma 5 Norte 0 -- -- 93
2019-06-08 07:00:00 3.3 3 Noroeste 8 Noroeste 0 -- -- 94
2019-06-08 06:00:00 3.3 0 Calma 4 Norte 0 -- -- 93
2019-06-08 05:00:00 3.5 3 Nordeste 7 Norte 0 -- -- 93
2019-06-08 04:00:00 3.8 6 Norte 9 Noroeste 0 -- -- 93
2019-06-08 03:00:00 4.3 5 Norte 10 Norte 0 -- -- 89
2019-06-08 02:00:00 4.9 5 Norte 10 Noroeste 0 -- -- 90
2019-06-08 01:00:00 5.8 5 Norte 12 Noroeste 0 -- -- 87
2019-06-08 00:00:00 6.3 4 Norte 9 Nordeste 0 -- -- 86
2019-06-07 23:00:00 6.2 0 Calma 5 Norte 0 -- -- 91
2019-06-07 22:00:00 5.7 2 Noroeste 4 Noroeste 0 -- -- 91
2019-06-07 21:00:00 6.5 0 Calma 8 Sur 0.2 -- -- 88
2019-06-07 20:00:00 6.9 3 Sur 8 Nordeste 0 -- -- 88
2019-06-07 19:00:00 9.5 5 Sur 19 Noroeste 0 -- -- 78
2019-06-07 18:00:00 8.5 3 Sudeste 10 Este 0.2 -- -- 83
2019-06-07 17:00:00 8.1 4 Sur 23 Noroeste 0.4 -- -- 82
2019-06-07 16:00:00 9.8 4 Sur 17 Sudeste 0 -- -- 72
2019-06-07 15:00:00 6.5 4 Nordeste 24 Noroeste 0.4 -- -- 85
2019-06-07 14:00:00 7.4 9 Norte 25 Norte 0.2 -- -- 79
2019-06-07 13:00:00 7.4 9 Sur 29 Norte 0.2 -- -- 84
2019-06-07 12:00:00 7.2 10 Norte 26 Norte 2 -- -- 83
2019-06-07 11:00:00 4.5 8 Norte 24 Norte 2.2 -- -- 88
2019-06-07 10:00:00 4.4 6 Norte 26 Norte 0.8 -- -- 86
2019-06-07 09:00:00 4.6 7 Nordeste 25 Norte 0.2 -- -- 87
2019-06-07 08:00:00 3.7 10 Norte 29 Norte 0.2 -- -- 89
2019-06-07 07:00:00 3.4 12 Norte 33 Norte 0.4 -- -- 90
2019-06-07 06:00:00 3.6 8 Nordeste 36 Norte 0.4 -- -- 90
2019-06-07 05:00:00 3.7 10 Nordeste 40 Nordeste 0.4 -- -- 89
2019-06-07 04:00:00 3.6 13 Norte 36 Este 0.4 -- -- 90
2019-06-07 03:00:00 3.3 9 Norte 46 Norte 3.2 -- -- 91
2019-06-07 02:00:00 4.2 12 Nordeste 37 Norte 0.2 -- -- 89
2019-06-07 01:00:00 4.6 5 Sur 22 Norte 1.4 -- -- 88
2019-06-07 00:00:00 4.7 5 Sur 35 Norte 2 -- -- 91
2019-06-06 23:00:00 5.6 5 Nordeste 36 Sudoeste 1.2 -- -- 86
2019-06-06 22:00:00 6.7 17 Oeste 44 Oeste 0 -- -- 75
2019-06-06 21:00:00 7.5 14 Oeste 37 Sudoeste 0 -- -- 74
2019-06-06 20:00:00 8.4 17 Oeste 46 Sur 0 -- -- 70
2019-06-06 19:00:00 8.1 14 Oeste 50 Norte 5.6 -- -- 81
2019-06-06 18:00:00 8.9 23 Sur 64 Sur 2.8 -- -- 87
2019-06-06 17:00:00 8.1 26 Sur 62 Sur 3.8 -- -- 87
2019-06-06 16:00:00 8.5 24 Sur 59 Sur 2.4 -- -- 85
2019-06-06 15:00:00 9.5 31 Sur 59 Sur 0.2 -- -- 76
2019-06-06 14:00:00 10.2 19 Sur 46 Sur 0 -- -- 64
2019-06-06 13:00:00 10.4 23 Sur 45 Sur 0 -- -- 65
2019-06-06 12:00:00 9.4 17 Sur 39 Sur 0 -- -- 72
2019-06-06 11:00:00 7.3 19 Sur 55 Sudoeste 0 -- -- 78
2019-06-06 10:00:00 6.6 21 Sur 42 Sur 0 -- -- 79
2019-06-06 09:00:00 5.3 16 Sur 36 Sur 0 -- -- 85
2019-06-06 08:00:00 4.7 9 Sur 24 Sur 0 -- -- 87
2019-06-06 07:00:00 4.3 4 Sur 16 Sudoeste 0 -- -- 87
2019-06-06 06:00:00 4.3 6 Oeste 15 Sudoeste 0 -- -- 86
2019-06-06 05:00:00 4.6 3 Oeste 16 Noroeste 0 -- -- 86
2019-06-06 04:00:00 4.6 5 Oeste 13 Oeste 0 -- -- 85
2019-06-06 03:00:00 3.3 4 Oeste 8 Oeste 0 -- -- 90
2019-06-06 02:00:00 3.6 2 Noroeste 8 Norte 0 -- -- 92
2019-06-06 01:00:00 3.3 2 Norte 6 Norte 0 -- -- 94
2019-06-06 00:00:00 3.8 3 Noroeste 5 Norte 0 -- -- 93
2019-06-05 23:00:00 5 2 Este 10 Nordeste 0 -- -- 92
2019-06-05 22:00:00 5.7 3 Nordeste 6 Nordeste 0 -- -- 90
2019-06-05 21:00:00 6.3 2 Sudeste 18 Oeste 0.2 -- -- 89
2019-06-05 20:00:00 6.2 5 Norte 18 Noroeste 0 -- -- 87
2019-06-05 19:00:00 7 3 Nordeste 18 Norte 0.8 -- -- 85
2019-06-05 18:00:00 5.4 5 Noroeste 28 Norte 2.6 -- -- 87
2019-06-05 17:00:00 9 5 Nordeste 18 Nordeste 0 -- -- 74
2019-06-05 16:00:00 9.1 6 Norte 19 Noroeste 0 -- -- 70
2019-06-05 15:00:00 8.5 5 Este 14 Este 0 -- -- 77
2019-06-05 14:00:00 8.4 5 Este 32 Noroeste 0.4 -- -- 87
2019-06-05 13:00:00 8.1 5 Sudeste 21 Norte 0.4 -- -- 82
2019-06-05 12:00:00 7.3 5 Nordeste 17 Sudeste 0 -- -- 84
2019-06-05 11:00:00 5.9 2 Sur 21 Noroeste 1.4 -- -- 90
2019-06-05 10:00:00 5.9 4 Norte 13 Noroeste 0 -- -- 89
2019-06-05 09:00:00 5.1 2 Este 15 Nordeste 0.2 -- -- 92
2019-06-05 08:00:00 5 4 Nordeste 19 Norte 0 -- -- 92
2019-06-05 07:00:00 5 6 Nordeste 21 Noroeste 0.6 -- -- 91
2019-06-05 06:00:00 5.2 8 Norte 20 Norte 0.8 -- -- 91
2019-06-05 05:00:00 5.3 3 Este 13 Norte 0 -- -- 92
2019-06-05 04:00:00 5.3 8 Norte 17 Norte 0 -- -- 89
2019-06-05 03:00:00 5.3 4 Norte 10 Este 0 -- -- 92
2019-06-05 02:00:00 5.1 4 Norte 15 Norte 0.8 -- -- 91
2019-06-05 01:00:00 5.5 7 Norte 21 Este 1.8 -- -- 89
2019-06-05 00:00:00 6.1 0 Calma 15 Norte 0.4 -- -- 90
2019-06-04 23:00:00 6.6 4 Norte 8 Norte 0 -- -- 92
2019-06-04 22:00:00 6.6 0 Calma 17 Noroeste 4 -- -- 91
2019-06-04 21:00:00 8.4 5 Norte 18 Noroeste 0 -- -- 76
2019-06-04 20:00:00 8.8 7 Norte 20 Norte 0.2 -- -- 81
2019-06-04 19:00:00 10.8 6 Nordeste 31 Norte 0 -- -- 78
2019-06-04 18:00:00 12.7 8 Norte 17 Nordeste 0 -- -- 59
2019-06-04 17:00:00 12.4 7 Norte 19 Norte 0 -- -- 56
2019-06-04 16:00:00 12.5 8 Norte 21 Noroeste 0 -- -- 60
2019-06-04 15:00:00 10.7 5 Sudoeste 21 Norte 0 -- -- 77
2019-06-04 14:00:00 9.8 9 Norte 19 Noroeste 0.2 -- -- 86
2019-06-04 13:00:00 9.9 4 Nordeste 26 Noroeste 2.2 -- -- 88
2019-06-04 12:00:00 10.6 2 Este 13 Norte 1 -- -- 91
2019-06-04 11:00:00 10.4 8 Sur 23 Sudoeste 0.2 -- -- 87
2019-06-04 10:00:00 11.6 8 Sur 26 Sur 0 -- -- 78
2019-06-04 09:00:00 10.7 7 Sur 26 Sudoeste 0 -- -- 81
2019-06-04 08:00:00 10.2 14 Sudoeste 38 Oeste 0 -- -- 77
2019-06-04 07:00:00 9.4 11 Noroeste 39 Sudoeste 0 -- -- 78
2019-06-04 06:00:00 9.4 17 Oeste 42 Oeste 0 -- -- 78
2019-06-04 05:00:00 9.7 10 Oeste 32 Oeste 0 -- -- 82
2019-06-04 04:00:00 10.5 11 Sudoeste 22 Sudoeste 0 -- -- 82
2019-06-04 03:00:00 11 2 Nordeste 11 Norte 0 -- -- 86
2019-06-04 02:00:00 12.1 4 Sudeste 13 Sudoeste 0 -- -- 81
2019-06-04 01:00:00 12.1 4 Norte 18 Norte 0 -- -- 84
2019-06-04 00:00:00 13.3 4 Norte 13 Norte 0 -- -- 79
2019-06-03 23:00:00 13.6 7 Noroeste 14 Noroeste 0 -- -- 80
2019-06-03 22:00:00 14.4 7 Noroeste 13 Noroeste 0 -- -- 79
2019-06-03 21:00:00 15.4 7 Norte 18 Norte 0 -- -- 75
2019-06-03 20:00:00 16.8 7 Norte 23 Norte 0 -- -- 70
2019-06-03 19:00:00 17.9 7 Norte 18 Norte 0 -- -- 66
2019-06-03 18:00:00 18.5 9 Norte 19 Norte 0 -- -- 66
2019-06-03 17:00:00 20.5 9 Norte 22 Norte 0 -- -- 56
2019-06-03 16:00:00 19.5 11 Norte 23 Noroeste 0 -- -- 61
2019-06-03 15:00:00 20.2 6 Oeste 19 Sudoeste 0 -- -- 57
2019-06-03 14:00:00 19.7 4 Norte 12 Noroeste 0 -- -- 62
2019-06-03 13:00:00 17.6 6 Norte 18 Sur 0 -- -- 66
2019-06-03 12:00:00 18 5 Sudoeste 19 Sudoeste 0 -- -- 61
2019-06-03 11:00:00 17 3 Este 8 Sudeste 0 -- -- 60
2019-06-03 10:00:00 16.7 2 Oeste 8 Sur 0 -- -- 61
2019-06-03 09:00:00 14.9 0 Calma 7 Oeste 0 -- -- 57
2019-06-03 08:00:00 13.4 3 Noroeste 6 Oeste 0 -- -- 65
2019-06-03 07:00:00 12.7 0 Calma 6 Norte 0 -- -- 55
2019-06-03 06:00:00 12.2 4 Noroeste 8 Noroeste 0 -- -- 55
2019-06-03 05:00:00 12.5 2 Norte 6 Noroeste 0 -- -- 54
2019-06-03 04:00:00 11.9 2 Norte 8 Norte 0 -- -- 63
2019-06-03 03:00:00 12 3 Norte 9 Noroeste 0 -- -- 64
2019-06-03 02:00:00 12.7 8 Norte 14 Norte 0 -- -- 63
2019-06-03 01:00:00 13.7 2 Noroeste 8 Noroeste 0 -- -- 63
2019-06-03 00:00:00 14.6 0 Calma 9 Norte 0 -- -- 61
2019-06-02 23:00:00 15.1 3 Noroeste 10 Noroeste 0 -- -- 58
2019-06-02 22:00:00 16.4 2 Norte 12 Norte 0 -- -- 51
2019-06-02 21:00:00 18.3 4 Nordeste 13 Nordeste 0 -- -- 43
2019-06-02 20:00:00 20.2 5 Nordeste 15 Nordeste 0 -- -- 38
2019-06-02 19:00:00 22.5 7 Oeste 20 Noroeste 0 -- -- 34
2019-06-02 18:00:00 23.9 4 Sudeste 17 Nordeste 0 -- -- 34
2019-06-02 17:00:00 22 4 Este 19 Sur 0 -- -- 34
2019-06-02 16:00:00 23.7 6 Oeste 23 Sur 0 -- -- 30
2019-06-02 15:00:00 23.3 6 Oeste 19 Noroeste 0 -- -- 31
2019-06-02 14:00:00 22.7 8 Sur 15 Sur 0 -- -- 35
2019-06-02 13:00:00 22 8 Sudoeste 25 Sur 0 -- -- 30
2019-06-02 12:00:00 22.3 8 Sudoeste 22 Sudoeste 0 -- -- 31
2019-06-02 11:00:00 21.7 8 Sudoeste 21 Oeste 0 -- -- 30
2019-06-02 10:00:00 20.3 6 Oeste 17 Sur 0 -- -- 29
2019-06-02 09:00:00 18.9 8 Sur 18 Sudoeste 0 -- -- 28
2019-06-02 08:00:00 16.5 11 Sudoeste 17 Sudoeste 0 -- -- 30
2019-06-02 07:00:00 14.3 5 Noroeste 10 Oeste 0 -- -- 40
2019-06-02 06:00:00 15.1 4 Norte 8 Noroeste 0 -- -- 43
2019-06-02 05:00:00 14.7 6 Norte 15 Norte 0 -- -- 43
2019-06-02 04:00:00 15.9 10 Norte 15 Norte 0 -- -- 47
2019-06-02 03:00:00 16 6 Norte 9 Norte 0 -- -- 45
2019-06-02 02:00:00 15.9 2 Norte 7 Norte 0 -- -- 51
2019-06-02 01:00:00 16.1 2 Norte 15 Norte 0 -- -- 48
2019-06-02 00:00:00 16.9 10 Norte 16 Norte 0 -- -- 44
2019-06-01 23:00:00 17.8 6 Noroeste 17 Noroeste 0 -- -- 41
2019-06-01 22:00:00 19.1 8 Norte 13 Noroeste 0 -- -- 44
2019-06-01 21:00:00 21.8 6 Norte 17 Norte 0 -- -- 36
2019-06-01 20:00:00 25.6 6 Norte 23 Norte 0 -- -- 28
2019-06-01 19:00:00 27.2 7 Norte 23 Norte 0 -- -- 20
2019-06-01 18:00:00 27.3 6 Norte 21 Nordeste 0 -- -- 25
2019-06-01 17:00:00 27 8 Oeste 24 Noroeste 0 -- -- 27
2019-06-01 16:00:00 27.3 9 Nordeste 28 Norte 0 -- -- 26
2019-06-01 15:00:00 27.1 12 Sudoeste 33 Oeste 0 -- -- 22
2019-06-01 14:00:00 27.1 12 Sudoeste 27 Sudoeste 0 -- -- 23
2019-06-01 13:00:00 26.6 12 Sur 29 Sur 0 -- -- 27
2019-06-01 12:00:00 26.5 11 Sur 23 Sur 0 -- -- 36
2019-06-01 11:00:00 24.6 12 Sur 22 Sur 0 -- -- 40
2019-06-01 10:00:00 24 6 Sudoeste 17 Sudoeste 0 -- -- 40
2019-06-01 09:00:00 20.2 5 Sudoeste 17 Sudoeste 0 -- -- 46
2019-06-01 08:00:00 19.2 4 Nordeste 10 Noroeste 0 -- -- 47
2019-06-01 07:00:00 17.9 3 Noroeste 9 Norte 0 -- -- 51
2019-06-01 06:00:00 18.3 5 Oeste 11 Sur 0 -- -- 49
2019-06-01 05:00:00 18.2 4 Noroeste 8 Norte 0 -- -- 50
2019-06-01 04:00:00 18.6 2 Noroeste 6 Norte 0 -- -- 48
2019-06-01 03:00:00 18 2 Noroeste 3 Noroeste 0 -- -- 50
2019-06-01 02:00:00 18.1 0 Calma 4 Norte 0 -- -- 52
2019-06-01 01:00:00 18.2 0 Calma 9 Norte 0 -- -- 51
2019-06-01 00:00:00 19.6 9 Norte 16 Noroeste 0 -- -- 49
2019-05-31 23:00:00 19.9 9 Norte 14 Norte 0 -- -- 48
2019-05-31 22:00:00 21.2 9 Norte 16 Norte 0 -- -- 46
2019-05-31 21:00:00 23.7 7 Norte 14 Norte 0 -- -- 33
2019-05-31 20:00:00 26.6 5 Norte 12 Nordeste 0 -- -- 29
2019-05-31 19:00:00 28.9 5 Nordeste 15 Sudeste 0 -- -- 28
2019-05-31 18:00:00 29.1 6 Este 18 Este 0 -- -- 27
2019-05-31 17:00:00 27.6 6 Nordeste 17 Norte 0 -- -- 29
2019-05-31 16:00:00 28.9 4 Este 14 Sudeste 0 -- -- 26
2019-05-31 15:00:00 27.7 4 Nordeste 14 Sur 0 -- -- 25
2019-05-31 14:00:00 28.2 7 Sur 15 Sur 0 -- -- 28
2019-05-31 13:00:00 27 8 Sur 22 Sur 0 -- -- 27
2019-05-31 12:00:00 25.4 11 Sur 23 Sur 0 -- -- 38
2019-05-31 11:00:00 24.5 10 Sur 23 Sur 0 -- -- 38
2019-05-31 10:00:00 23.6 7 Sur 17 Sur 0 -- -- 40
2019-05-31 09:00:00 19.2 3 Nordeste 19 Sur 0 -- -- 47
2019-05-31 08:00:00 17.8 5 Sur 25 Sur 0 -- -- 50
2019-05-31 07:00:00 17.2 11 Sur 25 Sur 0 -- -- 51
2019-05-31 06:00:00 17.8 13 Sur 29 Sur 0 -- -- 49
2019-05-31 05:00:00 17.1 6 Sur 35 Sur 0 -- -- 52
2019-05-31 04:00:00 18 13 Sur 27 Sudoeste 0 -- -- 48
2019-05-31 03:00:00 18.2 9 Sur 26 Sur 0 -- -- 46
2019-05-31 02:00:00 18.5 11 Sur 23 Sur 0 -- -- 45
2019-05-31 01:00:00 16.9 2 Noroeste 5 Norte 0 -- -- 59
2019-05-31 00:00:00 17.3 0 Calma 12 Noroeste 0 -- -- 58
2019-05-30 23:00:00 18.2 6 Norte 14 Norte 0 -- -- 55
2019-05-30 22:00:00 19.3 8 Norte 16 Norte 0 -- -- 52
2019-05-30 21:00:00 20.8 8 Norte 20 Nordeste 0 -- -- 49
2019-05-30 20:00:00 24 7 Norte 19 Nordeste 0 -- -- 45
2019-05-30 19:00:00 26.2 8 Norte 22 Norte 0 -- -- 38
2019-05-30 18:00:00 27.2 8 Nordeste 20 Norte 0 -- -- 27
2019-05-30 17:00:00 27.1 6 Norte 19 Nordeste 0 -- -- 28
2019-05-30 16:00:00 26.4 6 Norte 16 Noroeste 0 -- -- 30
2019-05-30 15:00:00 25.7 6 Nordeste 14 Sudeste 0 -- -- 33
2019-05-30 14:00:00 25 7 Nordeste 15 Nordeste 0 -- -- 37
2019-05-30 13:00:00 25 6 Sudeste 15 Este 0 -- -- 38
2019-05-30 12:00:00 24.5 5 Sur 11 Sur 0 -- -- 35
2019-05-30 11:00:00 22.4 4 Sur 10 Sur 0 -- -- 41
2019-05-30 10:00:00 21.5 3 Sur 6 Sur 0 -- -- 43
2019-05-30 09:00:00 15.3 0 Calma 2 Sur 0 -- -- 59
2019-05-30 08:00:00 13.4 0 Calma 5 Nordeste 0 -- -- 63
2019-05-30 07:00:00 13.5 3 Norte 6 Norte 0 -- -- 53
2019-05-30 06:00:00 14.9 0 Calma 13 Sudoeste 0 -- -- 48
2019-05-30 05:00:00 14.6 4 Noroeste 10 Sur 0 -- -- 50
2019-05-30 04:00:00 15.1 3 Noroeste 11 Sur 0 -- -- 47
2019-05-30 03:00:00 15.2 2 Sudoeste 18 Sur 0 -- -- 46
2019-05-30 02:00:00 15.6 7 Sur 22 Sur 0 -- -- 42
2019-05-30 01:00:00 14.1 4 Noroeste 8 Oeste 0 -- -- 54
2019-05-30 00:00:00 14 3 Noroeste 5 Norte 0 -- -- 58
2019-05-29 23:00:00 15.3 2 Norte 13 Norte 0 -- -- 49
2019-05-29 22:00:00 15.8 8 Norte 15 Norte 0 -- -- 57
2019-05-29 21:00:00 17.4 8 Norte 16 Norte 0 -- -- 51
2019-05-29 20:00:00 20.6 6 Norte 21 Noroeste 0 -- -- 42
2019-05-29 19:00:00 22.5 7 Norte 17 Nordeste 0 -- -- 37
2019-05-29 18:00:00 23 8 Norte 20 Nordeste 0 -- -- 36
2019-05-29 17:00:00 22.5 9 Norte 22 Norte 0 -- -- 36
2019-05-29 16:00:00 21.9 8 Norte 19 Nordeste 0 -- -- 41
2019-05-29 15:00:00 20.5 8 Norte 19 Nordeste 0 -- -- 46
2019-05-29 14:00:00 20.2 8 Nordeste 19 Nordeste 0 -- -- 48
2019-05-29 13:00:00 19.5 5 Este 16 Sudeste 0 -- -- 47
2019-05-29 12:00:00 17.8 3 Sudeste 10 Sudeste 0 -- -- 48
2019-05-29 11:00:00 17.5 3 Sur 12 Sur 0 -- -- 52
2019-05-29 10:00:00 15.2 4 Sur 8 Sur 0 -- -- 57
2019-05-29 09:00:00 9.1 0 Calma 4 Sur 0 -- -- 69
2019-05-29 08:00:00 5.5 0 Calma 5 Noroeste 0 -- -- 91
2019-05-29 07:00:00 4.7 0 Calma 6 Nordeste 0 -- -- 89
2019-05-29 06:00:00 4.6 0 Calma 7 Sudeste 0 -- -- 90
2019-05-29 05:00:00 4.7 2 Norte 4 Noroeste 0 -- -- 90
2019-05-29 04:00:00 4.8 0 Calma 4 Norte 0 -- -- 89
2019-05-29 03:00:00 5.1 2 Noroeste 4 Noroeste 0 -- -- 87
2019-05-29 02:00:00 5.6 0 Calma 6 Norte 0 -- -- 84
2019-05-29 01:00:00 6.2 0 Calma 6 Norte 0 -- -- 81
2019-05-29 00:00:00 6.9 2 Norte 12 Noroeste 0 -- -- 78
2019-05-28 23:00:00 8.1 6 Norte 14 Noroeste 0 -- -- 74
2019-05-28 22:00:00 9.1 8 Norte 15 Norte 0 -- -- 70
2019-05-28 21:00:00 10.5 8 Norte 21 Norte 0 -- -- 64
2019-05-28 20:00:00 13 12 Norte 22 Nordeste 0 -- -- 56
2019-05-28 19:00:00 15.5 10 Norte 25 Nordeste 0 -- -- 50
2019-05-28 18:00:00 16 11 Norte 27 Nordeste 0 -- -- 46
2019-05-28 17:00:00 16.5 9 Nordeste 26 Nordeste 0 -- -- 47
2019-05-28 16:00:00 16.3 8 Norte 25 Norte 0 -- -- 45
2019-05-28 15:00:00 15.4 9 Norte 24 Este 0 -- -- 52
2019-05-28 14:00:00 14.6 11 Norte 27 Este 0 -- -- 55
2019-05-28 13:00:00 13.6 9 Norte 24 Nordeste 0 -- -- 61
2019-05-28 12:00:00 12.6 9 Nordeste 24 Norte 0 -- -- 62
2019-05-28 11:00:00 11.5 9 Norte 29 Nordeste 0 -- -- 63
2019-05-28 10:00:00 9.8 6 Nordeste 18 Nordeste 0 -- -- 70
2019-05-28 09:00:00 6.1 3 Sur 7 Sur 0 -- -- 90
2019-05-28 08:00:00 4.9 3 Sur 18 Norte 0 -- -- 88
2019-05-28 07:00:00 4.1 3 Norte 12 Noroeste 0 -- -- 92
2019-05-28 06:00:00 4.8 9 Norte 18 Norte 0 -- -- 93
2019-05-28 05:00:00 4.6 2 Noroeste 15 Norte 0 -- -- 85
2019-05-28 04:00:00 5.1 9 Norte 14 Nordeste 0 -- -- 90
2019-05-28 03:00:00 6 4 Norte 8 Nordeste 0 -- -- 90
2019-05-28 02:00:00 6.2 3 Norte 10 Oeste 0 -- -- 91
2019-05-28 01:00:00 6.2 3 Sur 16 Norte 0 -- -- 91
2019-05-28 00:00:00 6.5 10 Norte 24 Norte 0 -- -- 91
2019-05-27 23:00:00 7.6 9 Norte 23 Noroeste 0 -- -- 87
2019-05-27 22:00:00 9.1 9 Norte 22 Norte 0 -- -- 79
2019-05-27 21:00:00 11.4 7 Norte 18 Norte 0 -- -- 72
2019-05-27 20:00:00 13.6 9 Norte 21 Norte 0 -- -- 67
2019-05-27 19:00:00 16.4 7 Norte 22 Norte 0 -- -- 58
2019-05-27 18:00:00 16.1 9 Norte 23 Norte 0 -- -- 59
2019-05-27 17:00:00 17.4 9 Nordeste 21 Nordeste 0 -- -- 60
2019-05-27 16:00:00 17.4 7 Norte 22 Nordeste 0 -- -- 56
2019-05-27 15:00:00 17.2 8 Norte 21 Nordeste 0 -- -- 56
2019-05-27 14:00:00 16.8 6 Noroeste 18 Nordeste 0 -- -- 60
2019-05-27 13:00:00 14.4 5 Nordeste 20 Nordeste 0 -- -- 75
2019-05-27 12:00:00 11.7 6 Norte 20 Este 0 -- -- 87
2019-05-27 11:00:00 12.9 6 Norte 14 Norte 0 -- -- 82
2019-05-27 10:00:00 12.1 3 Sur 11 Noroeste 0 -- -- 82
2019-05-27 09:00:00 11.5 3 Norte 6 Norte 0 -- -- 77
2019-05-27 08:00:00 10.7 2 Norte 8 Noroeste 0 -- -- 82
2019-05-27 07:00:00 10 3 Norte 9 Norte 0 -- -- 85
2019-05-27 06:00:00 8.9 0 Calma 10 Norte 0 -- -- 88
2019-05-27 05:00:00 10.8 6 Norte 13 Norte 0 -- -- 78
2019-05-27 04:00:00 8.4 0 Calma 8 Norte 0 -- -- 88
2019-05-27 03:00:00 9.9 6 Norte 12 Noroeste 0 -- -- 81
2019-05-27 02:00:00 9.3 2 Norte 6 Sur 0 -- -- 90
2019-05-27 01:00:00 9.8 0 Calma 6 Noroeste 0 -- -- 86
2019-05-27 00:00:00 10.9 3 Noroeste 6 Norte 0 -- -- 80